Time;durP1;ratioP1;P1;durP2;ratioP2;P2;SDS_P1;SDS_P2;PMS_P1;PMS_P2;Temp;Humidity;BMP_temperature;BMP_pressure;BME280_temperature;BME280_humidity;BME280_pressure;Samples;Min_cycle;Max_cycle;Signal;HPM_P1;HPM_P2
2021/11/19 00:00:30;;;;;;;9.60;4.90;;;;;;;5.18;80.28;97233.35;105251;1309;31322;-83
2021/11/19 00:03:17;;;;;;;6.70;5.00;;;;;;;5.18;80.15;97227.29;105214;1309;31674;-83
2021/11/19 00:05:49;;;;;;;10.90;5.50;;;;;;;5.16;80.25;97229.10;105260;1310;28451;-83
2021/11/19 00:08:25;;;;;;;10.90;6.40;;;;;;;5.15;80.18;97231.86;105200;1313;28798;-83
2021/11/19 00:10:57;;;;;;;9.10;6.50;;;;;;;5.16;80.22;97225.62;105250;1309;29305;-83
2021/11/19 00:13:29;;;;;;;9.20;6.00;;;;;;;5.16;80.23;97215.75;105156;1309;29926;-84
2021/11/19 00:16:00;;;;;;;7.80;4.60;;;;;;;5.17;80.33;97205.30;105306;1309;30607;-83
2021/11/19 00:18:31;;;;;;;8.40;5.50;;;;;;;5.19;80.07;97200.73;105234;1314;29272;-84
2021/11/19 00:21:02;;;;;;;6.20;4.00;;;;;;;5.19;80.00;97202.91;105242;1314;30980;-83
2021/11/19 00:23:33;;;;;;;5.60;4.00;;;;;;;5.23;79.82;97205.20;105256;1313;31119;-83
2021/11/19 00:26:04;;;;;;;6.90;4.20;;;;;;;5.28;79.89;97200.41;105296;1312;27505;-84
2021/11/19 00:28:35;;;;;;;6.80;4.60;;;;;;;5.27;79.51;97190.71;105354;1309;27003;-84
2021/11/19 00:31:06;;;;;;;5.50;4.10;;;;;;;5.29;79.54;97172.61;105308;1313;32174;-83
2021/11/19 00:33:39;;;;;;;8.40;3.80;;;;;;;5.31;79.34;97171.08;105397;1310;27852;-84
2021/11/19 00:36:14;;;;;;;9.50;4.90;;;;;;;5.30;79.49;97173.48;105315;1309;26719;-82
2021/11/19 00:38:46;;;;;;;12.00;4.70;;;;;;;5.30;79.45;97187.88;105284;1309;27166;-84
2021/11/19 00:41:19;;;;;;;7.50;4.80;;;;;;;5.33;79.42;97194.25;105320;1309;28701;-83
2021/11/19 00:43:49;;;;;;;9.40;4.70;;;;;;;5.36;79.18;97191.59;105349;1309;27111;-84
2021/11/19 00:46:21;;;;;;;9.50;5.00;;;;;;;5.42;78.96;97184.28;105345;1314;26465;-83
2021/11/19 00:48:52;;;;;;;5.30;3.60;;;;;;;5.43;78.80;97180.05;105271;1309;27170;-84
2021/11/19 00:51:26;;;;;;;9.00;4.40;;;;;;;5.46;78.61;97185.21;105289;1314;24503;-83
2021/11/19 00:53:58;;;;;;;8.10;4.00;;;;;;;5.47;78.41;97181.70;105219;1312;31473;-84
2021/11/19 00:56:32;;;;;;;6.50;3.50;;;;;;;5.48;78.65;97180.27;105209;1315;27863;-84
2021/11/19 00:59:03;;;;;;;6.30;3.20;;;;;;;5.49;78.43;97176.86;105335;1315;27879;-84
2021/11/19 01:01:38;;;;;;;8.30;4.40;;;;;;;5.46;78.66;97177.11;105289;1312;29884;-84
2021/11/19 01:04:11;;;;;;;6.90;3.90;;;;;;;5.43;78.47;97182.74;105373;1309;27731;-84
2021/11/19 01:06:43;;;;;;;6.70;4.50;;;;;;;5.46;78.48;97193.30;105276;1315;27251;-84
2021/11/19 01:09:18;;;;;;;5.10;3.40;;;;;;;5.46;78.59;97191.16;105199;1314;27366;-84
2021/11/19 01:11:50;;;;;;;9.90;5.40;;;;;;;5.47;78.52;97192.79;105225;1314;28612;-83
2021/11/19 01:14:24;;;;;;;9.40;4.70;;;;;;;5.47;78.73;97186.08;105282;1314;27662;-84
2021/11/19 01:16:58;;;;;;;9.00;3.50;;;;;;;5.45;78.63;97177.41;105306;1309;32142;-84
2021/11/19 01:19:38;;;;;;;8.60;4.00;;;;;;;5.49;78.45;97169.17;105273;1309;29400;-84
2021/11/19 01:22:12;;;;;;;8.90;5.40;;;;;;;5.49;78.44;97173.83;105327;1309;28084;-83
2021/11/19 01:24:44;;;;;;;8.30;4.50;;;;;;;5.48;78.55;97171.94;105272;1314;37830;-84
2021/11/19 01:27:16;;;;;;;7.20;3.70;;;;;;;5.50;78.54;97175.88;105292;1312;27136;-83
2021/11/19 01:29:49;;;;;;;7.50;3.60;;;;;;;5.53;78.38;97174.80;105244;1310;28598;-83
2021/11/19 01:32:24;;;;;;;6.50;3.70;;;;;;;5.54;78.43;97173.20;105210;1310;27852;-84
2021/11/19 01:34:56;;;;;;;13.90;5.30;;;;;;;5.52;78.48;97167.54;105288;1310;27724;-86
2021/11/19 01:37:27;;;;;;;5.50;3.60;;;;;;;5.53;78.38;97156.44;105311;1310;28953;-83
2021/11/19 01:39:58;;;;;;;9.90;5.00;;;;;;;5.56;78.37;97151.56;105283;1310;30245;-84
2021/11/19 01:42:28;;;;;;;;;;;;;;;5.57;78.33;97159.52;105338;1314;25331;-83
2021/11/19 01:45:05;;;;;;;10.10;4.80;;;;;;;5.56;78.23;97149.46;105304;1309;27109;-83
2021/11/19 01:47:38;;;;;;;6.40;4.10;;;;;;;5.54;78.38;97143.00;105341;1309;31115;-84
2021/11/19 01:50:17;;;;;;;7.00;4.10;;;;;;;5.53;78.40;97155.87;105376;1314;29154;-84
2021/11/19 01:52:52;;;;;;;14.00;3.80;;;;;;;5.58;78.38;97152.60;105283;1309;28288;-84
2021/11/19 01:55:27;;;;;;;5.40;3.30;;;;;;;5.61;78.23;97152.22;105237;1309;27377;-84
2021/11/19 01:58:18;;;;;;;7.90;4.50;;;;;;;5.62;78.37;97148.88;105213;1309;25326;-84
2021/11/19 02:00:52;;;;;;;6.70;4.10;;;;;;;5.62;78.42;97153.40;105296;1314;26320;-84
2021/11/19 02:03:27;;;;;;;7.50;3.90;;;;;;;5.62;78.34;97152.77;105192;1316;27126;-84
2021/11/19 02:06:01;;;;;;;4.20;3.30;;;;;;;5.61;78.49;97144.40;105291;1313;29081;-84
2021/11/19 02:08:36;;;;;;;6.50;3.80;;;;;;;5.63;78.49;97149.59;105316;1314;24131;-84
2021/11/19 02:11:33;;;;;;;7.70;4.10;;;;;;;5.63;78.63;97149.80;105355;1315;25997;-84
2021/11/19 02:14:14;;;;;;;4.70;2.70;;;;;;;5.65;78.68;97147.59;105344;1309;27546;-84
2021/11/19 02:16:48;;;;;;;6.80;4.10;;;;;;;5.64;78.68;97138.90;105306;1314;27663;-84
2021/11/19 02:19:24;;;;;;;11.80;4.80;;;;;;;5.64;78.69;97127.80;105276;1309;34396;-83
2021/11/19 02:22:00;;;;;;;5.10;3.20;;;;;;;5.66;78.75;97133.84;105259;1309;25319;-83
2021/11/19 02:24:33;;;;;;;5.30;3.70;;;;;;;5.69;78.82;97129.34;105302;1309;25805;-84
2021/11/19 02:27:14;;;;;;;7.00;4.10;;;;;;;5.67;79.03;97122.85;105285;1317;24068;-83
2021/11/19 02:29:50;;;;;;;10.60;4.40;;;;;;;5.65;79.02;97113.67;105263;1309;25498;-83
2021/11/19 02:32:24;;;;;;;10.30;4.90;;;;;;;5.60;79.17;97103.61;105231;1309;27313;-84
2021/11/19 02:34:56;;;;;;;7.90;4.40;;;;;;;5.54;79.42;97097.20;105262;1310;27447;-84
2021/11/19 02:37:32;;;;;;;9.90;5.80;;;;;;;5.52;79.67;97101.67;105176;1314;25356;-84
2021/11/19 02:40:11;;;;;;;9.10;4.90;;;;;;;5.51;79.89;97092.98;105158;1310;256895;-83
2021/11/19 02:42:45;;;;;;;6.60;4.10;;;;;;;5.49;80.14;97092.88;105219;1310;27859;-83
2021/11/19 02:45:20;;;;;;;8.00;4.90;;;;;;;5.50;80.29;97088.75;105323;1314;28859;-83
2021/11/19 02:47:51;;;;;;;7.60;4.00;;;;;;;5.50;80.24;97097.52;105189;1316;32827;-84
2021/11/19 02:50:24;;;;;;;7.30;3.90;;;;;;;5.48;80.24;97103.64;105232;1309;27058;-84
2021/11/19 02:52:57;;;;;;;6.40;4.30;;;;;;;5.51;80.37;97096.03;105285;1316;30596;-85
2021/11/19 02:55:33;;;;;;;7.80;4.10;;;;;;;5.55;80.22;97101.46;105287;1316;28202;-85
2021/11/19 02:58:05;;;;;;;6.30;3.50;;;;;;;5.55;80.34;97095.15;105294;1310;25280;-85
2021/11/19 03:00:42;;;;;;;6.10;3.90;;;;;;;5.59;80.03;97096.80;105408;1309;24302;-85
2021/11/19 03:03:13;;;;;;;6.10;4.00;;;;;;;5.61;80.00;97092.00;105313;1315;31874;-84
2021/11/19 03:05:43;;;;;;;5.90;4.00;;;;;;;5.61;80.03;97088.37;105273;1309;28509;-84
2021/11/19 03:08:14;;;;;;;4.20;3.00;;;;;;;5.61;79.96;97093.27;105296;1310;28398;-84
2021/11/19 03:10:48;;;;;;;4.20;3.00;;;;;;;5.63;80.09;97092.98;105218;1310;43150;-84
2021/11/19 03:13:19;;;;;;;8.80;4.10;;;;;;;5.62;80.03;97090.13;105224;1313;27975;-83
2021/11/19 03:15:51;;;;;;;4.40;3.70;;;;;;;5.61;80.17;97086.74;105257;1314;28972;-84
2021/11/19 03:18:25;;;;;;;9.80;3.30;;;;;;;5.64;79.84;97077.71;105165;1316;30367;-84
2021/11/19 03:21:01;;;;;;;5.20;3.10;;;;;;;5.68;79.97;97071.20;105288;1314;29900;-84
2021/11/19 03:23:33;;;;;;;6.80;3.50;;;;;;;5.71;79.98;97074.05;105252;1316;42208;-84
2021/11/19 03:26:05;;;;;;;5.90;3.30;;;;;;;5.72;79.88;97079.64;105233;1314;27015;-84
2021/11/19 03:28:36;;;;;;;5.40;3.60;;;;;;;5.74;79.70;97069.09;105376;1310;27329;-84
2021/11/19 03:31:10;;;;;;;4.00;2.90;;;;;;;5.73;79.78;97074.55;105313;1312;29846;-84
2021/11/19 03:33:43;;;;;;;4.60;2.30;;;;;;;5.72;80.10;97058.02;105276;1309;26763;-84
2021/11/19 03:36:17;;;;;;;3.50;2.30;;;;;;;5.77;80.01;97073.67;105281;1316;26075;-84
2021/11/19 03:38:50;;;;;;;7.50;3.60;;;;;;;5.78;79.99;97081.83;105329;1316;27848;-83
2021/11/19 03:41:24;;;;;;;3.80;2.40;;;;;;;5.79;79.99;97082.77;105255;1310;28121;-84
2021/11/19 03:43:59;;;;;;;7.10;2.50;;;;;;;5.80;80.03;97070.90;105256;1310;46898;-84
2021/11/19 03:46:33;;;;;;;3.40;2.00;;;;;;;5.80;80.23;97065.91;105264;1314;28463;-84
2021/11/19 03:49:04;;;;;;;3.80;1.80;;;;;;;5.82;80.15;97054.78;105315;1309;28929;-84
2021/11/19 03:51:41;;;;;;;6.30;2.70;;;;;;;5.83;80.25;97060.22;105376;1316;29057;-84
2021/11/19 03:54:15;;;;;;;3.30;2.10;;;;;;;5.84;80.43;97061.65;105307;1314;27706;-84
2021/11/19 03:56:46;;;;;;;5.70;3.00;;;;;;;5.84;80.52;97066.91;105270;1315;29488;-84
2021/11/19 03:59:18;;;;;;;5.90;3.30;;;;;;;5.80;80.66;97074.30;105267;1315;36107;-84
2021/11/19 04:01:52;;;;;;;3.70;2.80;;;;;;;5.76;81.16;97076.11;105201;1314;27548;-83
2021/11/19 04:04:27;;;;;;;4.90;3.30;;;;;;;5.75;81.32;97081.63;105266;1314;27429;-84
2021/11/19 04:07:00;;;;;;;5.40;3.40;;;;;;;5.70;81.72;97076.98;105251;1310;27981;-84
2021/11/19 04:09:31;;;;;;;5.90;3.60;;;;;;;5.67;81.67;97078.03;105302;1316;27504;-84
2021/11/19 04:12:04;;;;;;;5.70;2.70;;;;;;;5.63;81.89;97081.02;105329;1314;28629;-84
2021/11/19 04:14:35;;;;;;;5.50;2.80;;;;;;;5.62;82.17;97079.44;105296;1309;27713;-84
2021/11/19 04:17:06;;;;;;;4.60;2.90;;;;;;;5.60;82.98;97075.67;105293;1314;27479;-84
2021/11/19 04:19:38;;;;;;;6.10;3.30;;;;;;;5.61;83.47;97072.63;105330;1315;27534;-84
2021/11/19 04:22:12;;;;;;;6.40;3.60;;;;;;;5.59;83.42;97076.97;105330;1309;27845;-84
2021/11/19 04:24:46;;;;;;;6.50;4.60;;;;;;;5.53;83.44;97068.67;105328;1316;26153;-84
2021/11/19 04:27:18;;;;;;;6.30;3.90;;;;;;;5.42;83.33;97060.57;105344;1314;26111;-84
2021/11/19 04:29:49;;;;;;;5.90;3.90;;;;;;;5.38;83.61;97061.80;105290;1314;30309;-84
2021/11/19 04:32:23;;;;;;;8.60;4.20;;;;;;;5.32;83.78;97067.31;105180;1316;27123;-84
2021/11/19 04:34:55;;;;;;;6.20;4.20;;;;;;;5.29;84.17;97067.31;105258;1316;29266;-84
2021/11/19 04:37:27;;;;;;;5.60;4.00;;;;;;;5.27;84.14;97067.59;105254;1309;28053;-84
2021/11/19 04:39:58;;;;;;;7.30;4.20;;;;;;;5.26;84.17;97069.09;105202;1314;30244;-84
2021/11/19 04:42:29;;;;;;;9.70;4.60;;;;;;;5.25;84.19;97065.81;105227;1314;27664;-84
2021/11/19 04:45:00;;;;;;;7.10;4.50;;;;;;;5.26;84.42;97060.42;105242;1314;27033;-84
2021/11/19 04:47:31;;;;;;;7.80;4.50;;;;;;;5.26;84.59;97060.58;105286;1316;26884;-84
2021/11/19 04:50:04;;;;;;;6.20;4.50;;;;;;;5.29;84.65;97063.58;105303;1314;27195;-84
2021/11/19 04:52:35;;;;;;;8.10;4.30;;;;;;;5.30;84.76;97074.20;105276;1309;28655;-84
2021/11/19 04:55:08;;;;;;;7.40;4.60;;;;;;;5.27;84.60;97064.75;105361;1314;26078;-84
2021/11/19 04:57:39;;;;;;;6.60;4.00;;;;;;;5.26;84.87;97052.38;105326;1314;27011;-84
2021/11/19 05:00:14;;;;;;;4.30;3.00;;;;;;;5.25;84.73;97060.67;105240;1310;26939;-84
2021/11/19 05:02:46;;;;;;;5.10;3.30;;;;;;;5.23;85.31;97062.94;105212;1316;27017;-84
2021/11/19 05:05:18;;;;;;;4.20;3.30;;;;;;;5.19;85.69;97062.33;105251;1309;28983;-84
2021/11/19 05:07:49;;;;;;;8.20;4.10;;;;;;;5.15;86.71;97055.40;105261;1309;26841;-84
2021/11/19 05:10:20;;;;;;;6.00;3.90;;;;;;;5.14;86.83;97059.33;105234;1313;28291;-83
2021/11/19 05:12:55;;;;;;;4.00;2.70;;;;;;;5.07;87.32;97063.18;105272;1316;25234;-84
2021/11/19 05:15:27;;;;;;;5.60;3.60;;;;;;;5.02;88.41;97054.20;105262;1315;28592;-84
2021/11/19 05:17:57;;;;;;;6.40;3.90;;;;;;;5.01;88.74;97058.31;105300;1316;27330;-84
2021/11/19 05:20:28;;;;;;;5.20;3.30;;;;;;;4.94;89.06;97057.55;105206;1312;27159;-84
2021/11/19 05:22:59;;;;;;;4.40;2.70;;;;;;;4.91;89.51;97063.78;105225;1316;29561;-83
2021/11/19 05:25:33;;;;;;;6.90;4.10;;;;;;;4.90;89.84;97064.81;105256;1314;31106;-84
2021/11/19 05:28:04;;;;;;;4.50;2.80;;;;;;;4.88;90.17;97061.52;105291;1316;27895;-84
2021/11/19 05:30:35;;;;;;;5.80;4.20;;;;;;;4.85;90.53;97057.05;105294;1309;26247;-83
2021/11/19 05:33:07;;;;;;;6.70;4.10;;;;;;;4.81;90.96;97056.76;105275;1309;27774;-83
2021/11/19 05:35:39;;;;;;;5.10;3.50;;;;;;;4.77;90.80;97064.66;105322;1316;24641;-83
2021/11/19 05:38:10;;;;;;;6.30;3.80;;;;;;;4.72;91.23;97065.49;105300;1309;26053;-83
2021/11/19 05:40:41;;;;;;;5.30;2.60;;;;;;;4.72;91.54;97073.89;105218;1316;27144;-82
2021/11/19 05:43:13;;;;;;;6.10;3.70;;;;;;;4.69;91.91;97068.25;105329;1315;25500;-82
2021/11/19 05:45:44;;;;;;;7.80;3.60;;;;;;;4.68;91.98;97079.16;105293;1316;23795;-83
2021/11/19 05:48:15;;;;;;;7.10;4.70;;;;;;;4.67;92.22;97066.98;105309;1316;26551;-83
2021/11/19 05:50:48;;;;;;;7.60;4.80;;;;;;;4.66;92.37;97063.53;105244;1315;27134;-83
2021/11/19 05:53:20;;;;;;;6.70;4.40;;;;;;;4.63;92.39;97060.29;105327;1313;28063;-83
2021/11/19 05:55:52;;;;;;;6.00;2.80;;;;;;;4.62;92.56;97058.27;105240;1315;27207;-83
2021/11/19 05:58:23;;;;;;;4.20;3.00;;;;;;;4.63;92.82;97063.64;105308;1316;26462;-83
2021/11/19 06:00:59;;;;;;;4.70;2.70;;;;;;;4.64;93.13;97068.23;105332;1316;26644;-83
2021/11/19 06:03:30;;;;;;;4.60;3.10;;;;;;;4.65;93.41;97074.02;105287;1313;26009;-82
2021/11/19 06:06:01;;;;;;;6.50;4.40;;;;;;;4.68;93.61;97076.23;105274;1315;28064;-83
2021/11/19 06:08:32;;;;;;;6.30;4.00;;;;;;;4.68;93.67;97082.11;105266;1316;43973;-83
2021/11/19 06:11:09;;;;;;;5.80;3.70;;;;;;;4.70;93.76;97080.46;105288;1315;25518;-83
2021/11/19 06:13:44;;;;;;;6.70;4.30;;;;;;;4.71;93.97;97082.91;105305;1316;25480;-83
2021/11/19 06:16:18;;;;;;;4.60;3.30;;;;;;;4.72;93.97;97086.13;105256;1315;27638;-83
2021/11/19 06:19:03;;;;;;;4.40;2.30;;;;;;;4.75;94.26;97082.77;105309;1315;27579;-82
2021/11/19 06:21:37;;;;;;;5.40;3.40;;;;;;;4.80;94.46;97092.35;105291;1309;25348;-83
2021/11/19 06:24:20;;;;;;;5.70;2.90;;;;;;;4.77;94.41;97098.95;105311;1316;27637;-83
2021/11/19 06:26:51;;;;;;;4.80;3.20;;;;;;;4.73;94.45;97106.33;105300;1315;40295;-83
2021/11/19 06:29:22;;;;;;;6.10;3.80;;;;;;;4.72;94.66;97108.34;105262;1316;26628;-83
2021/11/19 06:31:56;;;;;;;5.50;3.40;;;;;;;4.70;94.72;97103.90;105296;1316;28099;-83
2021/11/19 06:34:27;;;;;;;4.00;2.70;;;;;;;4.68;95.12;97110.64;105302;1316;28779;-82
2021/11/19 06:36:59;;;;;;;5.20;3.10;;;;;;;4.69;95.18;97113.21;105332;1316;28941;-83
2021/11/19 06:39:31;;;;;;;4.90;3.40;;;;;;;4.68;95.37;97113.10;105304;1315;28493;-85
2021/11/19 06:42:01;;;;;;;3.60;2.80;;;;;;;4.70;95.73;97106.56;105268;1316;28968;-84
2021/11/19 06:44:32;;;;;;;3.80;2.50;;;;;;;4.70;95.75;97105.63;105333;1315;26529;-84
2021/11/19 06:47:04;;;;;;;3.30;1.90;;;;;;;4.73;96.07;97122.06;105279;1315;30489;-83
2021/11/19 06:49:35;;;;;;;3.10;2.20;;;;;;;4.75;96.51;97117.91;105227;1315;27065;-83
2021/11/19 06:52:07;;;;;;;4.30;2.90;;;;;;;4.76;96.50;97123.45;105254;1315;25479;-84
2021/11/19 06:54:40;;;;;;;4.30;2.70;;;;;;;4.75;96.43;97123.84;105340;1316;28867;-84
2021/11/19 06:57:12;;;;;;;3.10;2.30;;;;;;;4.73;96.72;97126.23;105278;1316;29300;-83
2021/11/19 06:59:44;;;;;;;3.80;2.60;;;;;;;4.76;96.67;97131.02;105261;1315;29939;-83
2021/11/19 07:02:16;;;;;;;3.90;1.90;;;;;;;4.79;97.17;97129.05;105291;1316;28420;-83
2021/11/19 07:04:46;;;;;;;3.30;2.20;;;;;;;4.83;97.14;97130.55;105239;1315;32313;-84
2021/11/19 07:07:18;;;;;;;3.00;2.10;;;;;;;4.84;97.25;97120.70;105255;1315;31324;-85
2021/11/19 07:09:50;;;;;;;3.00;2.00;;;;;;;4.85;97.26;97116.25;105289;1316;25806;-84
2021/11/19 07:12:21;;;;;;;2.50;1.30;;;;;;;4.86;97.38;97116.17;105266;1316;30946;-85
2021/11/19 07:14:53;;;;;;;2.30;1.50;;;;;;;4.93;97.59;97120.11;105270;1315;33495;-84
2021/11/19 07:17:24;;;;;;;2.80;1.50;;;;;;;4.98;97.91;97124.79;105317;1316;31650;-84
2021/11/19 07:19:55;;;;;;;3.00;1.70;;;;;;;5.02;97.90;97124.78;105287;1314;31607;-84
2021/11/19 07:22:26;;;;;;;2.00;1.40;;;;;;;5.03;97.96;97121.73;105250;1316;28294;-83
2021/11/19 07:24:57;;;;;;;2.40;1.40;;;;;;;5.07;98.03;97120.98;105350;1316;26026;-83
2021/11/19 07:27:28;;;;;;;3.50;1.80;;;;;;;5.04;97.93;97123.77;105302;1316;26818;-84
2021/11/19 07:29:59;;;;;;;1.70;1.40;;;;;;;5.02;97.78;97123.04;105251;1316;25780;-84
2021/11/19 07:32:29;;;;;;;2.30;1.30;;;;;;;5.03;98.04;97136.56;105226;1315;27103;-83
2021/11/19 07:35:03;;;;;;;1.90;1.20;;;;;;;5.04;98.16;97138.20;105290;1314;25016;-84
2021/11/19 07:37:34;;;;;;;2.70;1.40;;;;;;;5.05;98.14;97130.23;105291;1314;28613;-84
2021/11/19 07:40:07;;;;;;;3.60;2.00;;;;;;;5.03;97.89;97128.31;105346;1316;25753;-85
2021/11/19 07:42:39;;;;;;;2.60;1.50;;;;;;;5.00;97.96;97126.08;105233;1316;33113;-84
2021/11/19 07:45:12;;;;;;;2.10;1.30;;;;;;;5.00;98.21;97122.73;105206;1316;31085;-84
2021/11/19 07:47:43;;;;;;;2.90;1.70;;;;;;;5.00;98.01;97138.81;105181;1315;29082;-84
2021/11/19 07:50:23;;;;;;;1.80;1.00;;;;;;;4.99;97.96;97138.59;105255;1316;40672;-84
2021/11/19 07:52:54;;;;;;;1.50;1.10;;;;;;;4.99;98.02;97136.86;105204;1316;27647;-84
2021/11/19 07:55:25;;;;;;;2.20;1.60;;;;;;;5.02;98.19;97132.42;105206;1316;25242;-85
2021/11/19 07:57:56;;;;;;;2.20;1.40;;;;;;;5.03;98.21;97130.20;105042;1316;30966;-84
2021/11/19 08:00:37;;;;;;;2.30;1.40;;;;;;;5.05;98.32;97134.50;105290;1315;29489;-85
2021/11/19 08:03:08;;;;;;;3.30;1.00;;;;;;;5.10;98.36;97131.32;105280;1316;24872;-85
2021/11/19 08:05:39;;;;;;;2.50;1.40;;;;;;;5.16;98.70;97136.37;105363;1309;26688;-85
2021/11/19 08:08:10;;;;;;;2.70;1.30;;;;;;;5.23;98.90;97132.39;105402;1316;26885;-83
2021/11/19 08:10:41;;;;;;;3.50;1.50;;;;;;;5.27;98.82;97142.65;105205;1316;26905;-82
2021/11/19 08:13:12;;;;;;;2.10;1.00;;;;;;;5.35;99.43;97141.77;105253;1316;30246;-83
2021/11/19 08:15:44;;;;;;;1.60;1.10;;;;;;;5.46;99.17;97139.24;105274;1314;31513;-85
2021/11/19 08:18:18;;;;;;;1.70;1.00;;;;;;;5.52;99.24;97136.19;105232;1316;28086;-84
2021/11/19 08:20:52;;;;;;;1.30;1.00;;;;;;;5.62;99.50;97133.02;105234;1315;26584;-84
2021/11/19 08:23:25;;;;;;;1.40;0.90;;;;;;;5.72;99.59;97127.35;105291;1316;26562;-84
2021/11/19 08:25:56;;;;;;;1.40;1.00;;;;;;;5.77;99.47;97131.67;105301;1315;35159;-84
2021/11/19 08:28:29;;;;;;;0.90;0.70;;;;;;;5.78;99.47;97125.38;105230;1315;31624;-84
2021/11/19 08:31:02;;;;;;;2.00;1.40;;;;;;;5.80;99.42;97131.20;105213;1316;26755;-84
2021/11/19 08:33:33;;;;;;;1.80;1.10;;;;;;;5.83;99.50;97139.88;105268;1316;31337;-84
2021/11/19 08:36:05;;;;;;;3.40;1.80;;;;;;;5.84;99.26;97144.95;105256;1309;26183;-84
2021/11/19 08:38:36;;;;;;;1.80;0.90;;;;;;;5.82;99.25;97154.44;105215;1313;26306;-85
2021/11/19 08:41:07;;;;;;;2.20;1.50;;;;;;;5.83;99.23;97157.94;105351;1316;29257;-84
2021/11/19 08:43:40;;;;;;;2.90;1.40;;;;;;;5.83;99.42;97159.55;105328;1310;29470;-85
2021/11/19 08:46:17;;;;;;;1.60;1.30;;;;;;;5.81;99.31;97157.33;105292;1309;29351;-82
2021/11/19 08:48:50;;;;;;;2.40;1.40;;;;;;;5.76;99.11;97160.48;105218;1309;26113;-84
2021/11/19 08:51:24;;;;;;;2.30;1.20;;;;;;;5.71;99.03;97158.27;105305;1309;29043;-85
2021/11/19 08:53:58;;;;;;;1.50;1.00;;;;;;;5.71;99.22;97169.59;105350;1314;27255;-84
2021/11/19 08:56:30;;;;;;;1.90;1.30;;;;;;;5.74;99.51;97172.16;105162;1316;30922;-84
2021/11/19 08:59:02;;;;;;;2.30;1.10;;;;;;;5.73;99.36;97162.52;105265;1314;24945;-85
2021/11/19 09:01:33;;;;;;;2.90;1.40;;;;;;;5.71;99.54;97166.75;105213;1314;26438;-84
2021/11/19 09:04:04;;;;;;;2.00;1.30;;;;;;;5.74;99.45;97164.79;105233;1309;34461;-83
2021/11/19 09:06:37;;;;;;;2.40;1.50;;;;;;;5.78;99.51;97165.94;105297;1309;32573;-83
2021/11/19 09:09:10;;;;;;;2.50;1.60;;;;;;;5.80;99.56;97166.46;105267;1316;33521;-84
2021/11/19 09:11:42;;;;;;;1.70;1.20;;;;;;;5.84;99.87;97174.69;105188;1314;34025;-84
2021/11/19 09:14:14;;;;;;;2.00;1.10;;;;;;;5.87;99.64;97169.10;105279;1314;28774;-85
2021/11/19 09:16:54;;;;;;;2.30;1.30;;;;;;;5.91;99.74;97164.59;105218;1309;35277;-85
2021/11/19 09:19:29;;;;;;;1.50;0.80;;;;;;;5.93;99.65;97160.85;105182;1309;30070;-85
2021/11/19 09:22:10;;;;;;;1.80;1.10;;;;;;;5.95;99.86;97163.35;105165;1310;29413;-85
2021/11/19 09:24:41;;;;;;;1.20;1.00;;;;;;;6.00;99.91;97164.11;105201;1317;28639;-83
2021/11/19 09:27:14;;;;;;;1.00;0.90;;;;;;;6.04;99.94;97164.19;105235;1316;28030;-84
2021/11/19 09:29:47;;;;;;;1.80;1.00;;;;;;;6.07;100.00;97162.25;105135;1315;30513;-84
2021/11/19 09:32:19;;;;;;;1.30;0.90;;;;;;;6.14;100.00;97160.02;105203;1316;35982;-84
2021/11/19 09:34:54;;;;;;;2.80;1.40;;;;;;;6.26;100.00;97158.86;105263;1316;29914;-84
2021/11/19 09:37:26;;;;;;;2.20;1.10;;;;;;;6.31;100.00;97159.92;105205;1314;28094;-85
2021/11/19 09:39:57;;;;;;;0.80;0.70;;;;;;;6.33;100.00;97157.86;105260;1309;27037;-85
2021/11/19 09:42:38;;;;;;;1.50;1.10;;;;;;;6.37;100.00;97153.04;105226;1310;29405;-84
2021/11/19 09:45:38;;;;;;;1.40;0.80;;;;;;;6.42;100.00;97156.86;105389;1309;27673;-84
2021/11/19 09:48:51;;;;;;;0.80;0.50;;;;;;;6.47;100.00;97145.73;105252;1309;26324;-85
2021/11/19 09:52:04;;;;;;;1.00;0.80;;;;;;;6.58;100.00;97146.00;105214;1310;27640;-85
2021/11/19 09:54:57;;;;;;;1.50;1.10;;;;;;;6.63;100.00;97145.25;105249;1309;27381;-84
2021/11/19 10:01:48;;;;;;;2.10;1.20;;;;;;;6.69;100.00;97145.08;101825;1354;544856;-83
2021/11/19 10:04:55;;;;;;;2.00;0.70;;;;;;;6.65;100.00;97141.19;104567;1325;28386;-85
2021/11/19 10:07:35;;;;;;;1.20;0.80;;;;;;;6.64;100.00;97140.90;104378;1325;27282;-84
2021/11/19 10:10:32;;;;;;;1.60;0.80;;;;;;;6.67;100.00;97141.99;104789;1315;28459;-84
2021/11/19 10:13:10;;;;;;;1.50;0.70;;;;;;;6.75;100.00;97137.05;104784;1316;28281;-84
2021/11/19 10:15:59;;;;;;;1.40;0.70;;;;;;;6.80;100.00;97142.46;104889;1313;153717;-82
2021/11/19 10:18:35;;;;;;;2.00;0.80;;;;;;;6.83;100.00;97144.51;105013;1313;26908;-83
2021/11/19 10:21:09;;;;;;;1.20;0.80;;;;;;;6.87;100.00;97139.55;105052;1312;25698;-84
2021/11/19 10:23:45;;;;;;;1.30;1.00;;;;;;;6.88;100.00;97144.09;105056;1319;28325;-83
2021/11/19 10:26:21;;;;;;;1.50;0.90;;;;;;;6.88;100.00;97135.17;104976;1313;37383;-84
2021/11/19 10:28:57;;;;;;;2.40;1.10;;;;;;;6.89;100.00;97130.30;104974;1316;28325;-84
2021/11/19 10:31:28;;;;;;;1.30;1.00;;;;;;;6.90;100.00;97122.33;104916;1312;27780;-84
2021/11/19 10:34:14;;;;;;;1.60;0.80;;;;;;;6.92;100.00;97116.81;105035;1317;26717;-84
2021/11/19 10:37:02;;;;;;;1.70;0.90;;;;;;;6.93;100.00;97105.18;104969;1319;29539;-84
2021/11/19 10:40:10;;;;;;;0.60;0.60;;;;;;;7.05;100.00;97108.18;104871;1317;30081;-84
2021/11/19 10:43:20;;;;;;;1.60;1.10;;;;;;;7.14;100.00;97105.92;105025;1319;26578;-82
2021/11/19 10:46:30;;;;;;;2.00;1.50;;;;;;;7.18;100.00;97104.80;104964;1317;29576;-84
2021/11/19 10:49:15;;;;;;;2.20;1.00;;;;;;;7.19;100.00;97095.62;104946;1317;28146;-84
2021/11/19 10:52:25;;;;;;;1.50;0.90;;;;;;;7.21;100.00;97097.54;104937;1317;30216;-84
2021/11/19 10:55:22;;;;;;;3.60;1.60;;;;;;;7.24;100.00;97094.52;105008;1318;27772;-84
2021/11/19 10:58:29;;;;;;;4.60;1.00;;;;;;;7.27;100.00;97092.54;105010;1318;35697;-84
2021/11/19 11:01:20;;;;;;;1.60;1.20;;;;;;;7.31;100.00;97085.19;105058;1312;26791;-84
2021/11/19 11:04:18;;;;;;;1.70;1.20;;;;;;;7.39;100.00;97085.52;104930;1312;27273;-84
2021/11/19 11:06:53;;;;;;;1.50;1.10;;;;;;;7.41;100.00;97091.91;104990;1312;27618;-84
2021/11/19 11:09:41;;;;;;;1.80;1.10;;;;;;;7.38;100.00;97091.42;105003;1313;27331;-84
2021/11/19 11:12:24;;;;;;;2.00;1.40;;;;;;;7.40;100.00;97085.64;105008;1318;27654;-82
2021/11/19 11:15:19;;;;;;;2.00;1.40;;;;;;;7.42;100.00;97078.42;104986;1312;27066;-84
2021/11/19 11:18:18;;;;;;;1.70;1.30;;;;;;;7.44;100.00;97083.51;105041;1313;32463;-84
2021/11/19 11:21:04;;;;;;;2.00;1.30;;;;;;;7.46;100.00;97080.33;104898;1312;29006;-84
2021/11/19 11:23:38;;;;;;;1.30;1.10;;;;;;;7.47;100.00;97082.30;104996;1312;28173;-84
2021/11/19 11:26:16;;;;;;;2.30;1.50;;;;;;;7.46;100.00;97086.08;105121;1313;26977;-84
2021/11/19 11:28:55;;;;;;;1.50;1.30;;;;;;;7.43;100.00;97084.14;105036;1313;26974;-84
2021/11/19 11:31:46;;;;;;;0.90;0.90;;;;;;;7.43;100.00;97080.45;104964;1313;28282;-84
2021/11/19 11:34:51;;;;;;;1.80;1.20;;;;;;;7.48;100.00;97086.05;104935;1317;28640;-84
2021/11/19 11:37:47;;;;;;;2.60;0.70;;;;;;;7.49;100.00;97084.95;105281;1313;28343;-84
2021/11/19 11:40:35;;;;;;;0.70;0.70;;;;;;;7.50;100.00;97090.34;105298;1313;28025;-84
2021/11/19 11:43:29;;;;;;;1.70;0.90;;;;;;;7.49;100.00;97088.02;105330;1316;28940;-85
2021/11/19 11:46:16;;;;;;;1.80;0.80;;;;;;;7.50;100.00;97087.91;105235;1314;30187;-84
2021/11/19 11:48:57;;;;;;;0.80;0.60;;;;;;;7.49;100.00;97090.66;105260;1310;29027;-84
2021/11/19 11:51:38;;;;;;;2.60;0.80;;;;;;;7.49;100.00;97080.21;105304;1309;27784;-85
2021/11/19 11:54:19;;;;;;;1.60;1.20;;;;;;;7.51;100.00;97078.91;105291;1313;31193;-85
2021/11/19 11:57:12;;;;;;;0.80;0.60;;;;;;;7.50;100.00;97078.58;105323;1313;28733;-84
2021/11/19 11:59:53;;;;;;;1.30;0.80;;;;;;;7.52;100.00;97071.48;105232;1314;29680;-84
2021/11/19 12:02:48;;;;;;;0.40;0.40;;;;;;;7.56;100.00;97069.77;105349;1315;29034;-84
2021/11/19 12:05:33;;;;;;;1.20;0.90;;;;;;;7.58;100.00;97073.16;105307;1316;29207;-85
2021/11/19 12:08:24;;;;;;;0.60;0.50;;;;;;;7.61;100.00;97075.38;105342;1309;26182;-85
2021/11/19 12:11:16;;;;;;;1.90;0.60;;;;;;;7.60;100.00;97071.37;105332;1316;27886;-85
2021/11/19 12:13:51;;;;;;;3.80;1.50;;;;;;;7.63;100.00;97071.55;105281;1316;28590;-84
2021/11/19 12:16:49;;;;;;;1.60;1.30;;;;;;;7.65;100.00;97079.27;105227;1309;26891;-84